sensor_id;sensor_type;location;lat;lon;timestamp;P1;durP1;ratioP1;P2;durP2;ratioP2
8450;SDS011;4262;50.980;13.892;2022-12-17T05:03:12;83.83;;;41.23;;
8450;SDS011;4262;50.980;13.892;2022-12-17T05:05:58;72.67;;;39.10;;
8450;SDS011;4262;50.980;13.892;2022-12-17T05:08:43;79.10;;;41.00;;
8450;SDS011;4262;50.980;13.892;2022-12-17T05:11:35;86.63;;;43.67;;
8450;SDS011;4262;50.980;13.892;2022-12-17T05:14:19;79.07;;;40.60;;
8450;SDS011;4262;50.980;13.892;2022-12-17T05:17:04;68.53;;;38.40;;
8450;SDS011;4262;50.980;13.892;2022-12-17T05:19:50;79.33;;;39.70;;
8450;SDS011;4262;50.980;13.892;2022-12-17T05:22:36;82.60;;;40.20;;
8450;SDS011;4262;50.980;13.892;2022-12-17T05:25:20;82.57;;;41.17;;
8450;SDS011;4262;50.980;13.892;2022-12-17T05:28:04;85.67;;;40.50;;
8450;SDS011;4262;50.980;13.892;2022-12-17T05:30:50;87.80;;;40.83;;
8450;SDS011;4262;50.980;13.892;2022-12-17T05:33:35;85.30;;;41.30;;
8450;SDS011;4262;50.980;13.892;2022-12-17T05:36:22;71.23;;;36.70;;
8450;SDS011;4262;50.980;13.892;2022-12-17T05:39:07;81.17;;;39.27;;
8450;SDS011;4262;50.980;13.892;2022-12-17T05:41:53;75.80;;;37.30;;
8450;SDS011;4262;50.980;13.892;2022-12-17T05:44:38;84.17;;;40.03;;
8450;SDS011;4262;50.980;13.892;2022-12-17T05:47:22;77.70;;;39.47;;
8450;SDS011;4262;50.980;13.892;2022-12-17T05:50:07;100.37;;;44.07;;
8450;SDS011;4262;50.980;13.892;2022-12-17T05:52:51;80.40;;;40.00;;
8450;SDS011;4262;50.980;13.892;2022-12-17T05:55:35;86.03;;;42.50;;
8450;SDS011;4262;50.980;13.892;2022-12-17T05:58:20;90.80;;;42.03;;
8450;SDS011;4262;50.980;13.892;2022-12-17T06:01:05;75.43;;;38.57;;
8450;SDS011;4262;50.980;13.892;2022-12-17T06:03:49;78.87;;;38.87;;
8450;SDS011;4262;50.980;13.892;2022-12-17T06:06:36;84.67;;;39.73;;
8450;SDS011;4262;50.980;13.892;2022-12-17T06:09:21;87.20;;;40.70;;
8450;SDS011;4262;50.980;13.892;2022-12-17T06:12:07;86.47;;;40.50;;
8450;SDS011;4262;50.980;13.892;2022-12-17T06:14:52;76.13;;;38.57;;
8450;SDS011;4262;50.980;13.892;2022-12-17T06:17:37;80.73;;;36.97;;
8450;SDS011;4262;50.980;13.892;2022-12-17T06:20:33;75.07;;;38.40;;
8450;SDS011;4262;50.980;13.892;2022-12-17T06:23:18;76.93;;;39.80;;
8450;SDS011;4262;50.980;13.892;2022-12-17T06:26:04;88.53;;;42.70;;
8450;SDS011;4262;50.980;13.892;2022-12-17T06:28:49;83.17;;;37.33;;
8450;SDS011;4262;50.980;13.892;2022-12-17T06:31:33;73.63;;;38.27;;
8450;SDS011;4262;50.980;13.892;2022-12-17T06:34:23;82.17;;;37.70;;
8450;SDS011;4262;50.980;13.892;2022-12-17T06:37:09;80.63;;;41.57;;
8450;SDS011;4262;50.980;13.892;2022-12-17T06:39:54;82.53;;;39.93;;
8450;SDS011;4262;50.980;13.892;2022-12-17T06:42:51;77.00;;;38.60;;
8450;SDS011;4262;50.980;13.892;2022-12-17T06:45:36;85.53;;;40.70;;
8450;SDS011;4262;50.980;13.892;2022-12-17T06:48:20;78.63;;;38.17;;
8450;SDS011;4262;50.980;13.892;2022-12-17T06:51:05;81.23;;;38.73;;
8450;SDS011;4262;50.980;13.892;2022-12-17T06:53:51;79.07;;;36.97;;
8450;SDS011;4262;50.980;13.892;2022-12-17T06:56:35;66.80;;;35.87;;
8450;SDS011;4262;50.980;13.892;2022-12-17T06:59:21;79.67;;;39.50;;
8450;SDS011;4262;50.980;13.892;2022-12-17T07:02:08;68.53;;;34.90;;
8450;SDS011;4262;50.980;13.892;2022-12-17T07:04:53;86.60;;;40.00;;
8450;SDS011;4262;50.980;13.892;2022-12-17T07:07:37;163.47;;;60.70;;
8450;SDS011;4262;50.980;13.892;2022-12-17T07:10:22;91.07;;;40.33;;
8450;SDS011;4262;50.980;13.892;2022-12-17T07:13:07;83.93;;;39.07;;
8450;SDS011;4262;50.980;13.892;2022-12-17T07:15:53;73.63;;;37.93;;
8450;SDS011;4262;50.980;13.892;2022-12-17T07:18:38;85.97;;;40.00;;
8450;SDS011;4262;50.980;13.892;2022-12-17T07:21:24;86.60;;;40.67;;
8450;SDS011;4262;50.980;13.892;2022-12-17T07:24:08;92.23;;;41.70;;
8450;SDS011;4262;50.980;13.892;2022-12-17T07:26:52;81.17;;;37.00;;
8450;SDS011;4262;50.980;13.892;2022-12-17T07:29:37;79.20;;;40.47;;
8450;SDS011;4262;50.980;13.892;2022-12-17T07:32:24;89.43;;;37.90;;
8450;SDS011;4262;50.980;13.892;2022-12-17T07:35:09;78.70;;;39.80;;
8450;SDS011;4262;50.980;13.892;2022-12-17T07:37:58;78.10;;;38.30;;
8450;SDS011;4262;50.980;13.892;2022-12-17T07:40:42;80.43;;;39.37;;
8450;SDS011;4262;50.980;13.892;2022-12-17T07:43:27;81.67;;;37.70;;
8450;SDS011;4262;50.980;13.892;2022-12-17T07:46:12;75.57;;;37.43;;
8450;SDS011;4262;50.980;13.892;2022-12-17T07:49:06;75.20;;;38.50;;
8450;SDS011;4262;50.980;13.892;2022-12-17T07:51:52;80.60;;;39.47;;
8450;SDS011;4262;50.980;13.892;2022-12-17T07:54:38;82.17;;;42.40;;
8450;SDS011;4262;50.980;13.892;2022-12-17T07:57:23;98.50;;;44.23;;
8450;SDS011;4262;50.980;13.892;2022-12-17T08:00:08;84.67;;;40.63;;
8450;SDS011;4262;50.980;13.892;2022-12-17T08:02:55;94.30;;;42.33;;
8450;SDS011;4262;50.980;13.892;2022-12-17T08:05:41;76.50;;;38.77;;
8450;SDS011;4262;50.980;13.892;2022-12-17T08:08:31;86.70;;;40.83;;
8450;SDS011;4262;50.980;13.892;2022-12-17T08:11:15;82.40;;;41.43;;
8450;SDS011;4262;50.980;13.892;2022-12-17T08:14:00;88.77;;;42.50;;
8450;SDS011;4262;50.980;13.892;2022-12-17T08:16:45;85.27;;;40.90;;
8450;SDS011;4262;50.980;13.892;2022-12-17T08:19:29;87.03;;;44.90;;
8450;SDS011;4262;50.980;13.892;2022-12-17T08:22:15;94.67;;;44.87;;
8450;SDS011;4262;50.980;13.892;2022-12-17T08:24:59;94.37;;;43.13;;
8450;SDS011;4262;50.980;13.892;2022-12-17T08:27:44;84.37;;;42.70;;
8450;SDS011;4262;50.980;13.892;2022-12-17T08:30:29;102.23;;;44.33;;
8450;SDS011;4262;50.980;13.892;2022-12-17T08:33:13;103.33;;;48.00;;
8450;SDS011;4262;50.980;13.892;2022-12-17T08:35:58;94.97;;;44.27;;
8450;SDS011;4262;50.980;13.892;2022-12-17T08:38:44;91.50;;;43.77;;
8450;SDS011;4262;50.980;13.892;2022-12-17T08:41:28;89.33;;;44.93;;
8450;SDS011;4262;50.980;13.892;2022-12-17T08:44:13;98.37;;;45.50;;
8450;SDS011;4262;50.980;13.892;2022-12-17T08:46:58;86.57;;;40.87;;
8450;SDS011;4262;50.980;13.892;2022-12-17T08:49:42;94.17;;;44.60;;
8450;SDS011;4262;50.980;13.892;2022-12-17T08:52:27;102.87;;;44.70;;
8450;SDS011;4262;50.980;13.892;2022-12-17T08:55:12;90.77;;;43.70;;
8450;SDS011;4262;50.980;13.892;2022-12-17T08:57:57;93.13;;;44.40;;
8450;SDS011;4262;50.980;13.892;2022-12-17T09:00:42;97.77;;;45.53;;
8450;SDS011;4262;50.980;13.892;2022-12-17T09:03:27;105.47;;;49.70;;
8450;SDS011;4262;50.980;13.892;2022-12-17T09:06:22;99.77;;;49.10;;
8450;SDS011;4262;50.980;13.892;2022-12-17T09:09:06;114.90;;;48.50;;
8450;SDS011;4262;50.980;13.892;2022-12-17T09:12:07;102.03;;;47.27;;
8450;SDS011;4262;50.980;13.892;2022-12-17T09:14:51;115.53;;;47.87;;
8450;SDS011;4262;50.980;13.892;2022-12-17T09:17:36;102.27;;;47.70;;
8450;SDS011;4262;50.980;13.892;2022-12-17T09:20:21;131.70;;;49.50;;
8450;SDS011;4262;50.980;13.892;2022-12-17T09:23:07;120.00;;;48.83;;
8450;SDS011;4262;50.980;13.892;2022-12-17T09:25:51;120.57;;;52.33;;
8450;SDS011;4262;50.980;13.892;2022-12-17T09:28:40;131.33;;;49.37;;
8450;SDS011;4262;50.980;13.892;2022-12-17T09:31:25;141.93;;;48.37;;
8450;SDS011;4262;50.980;13.892;2022-12-17T09:34:10;135.43;;;48.97;;
8450;SDS011;4262;50.980;13.892;2022-12-17T09:36:56;143.03;;;51.43;;
8450;SDS011;4262;50.980;13.892;2022-12-17T09:39:40;134.33;;;49.33;;
8450;SDS011;4262;50.980;13.892;2022-12-17T09:42:37;129.53;;;47.57;;
8450;SDS011;4262;50.980;13.892;2022-12-17T09:45:30;129.57;;;51.40;;
8450;SDS011;4262;50.980;13.892;2022-12-17T09:48:20;135.33;;;47.83;;
8450;SDS011;4262;50.980;13.892;2022-12-17T09:51:13;139.60;;;48.10;;
8450;SDS011;4262;50.980;13.892;2022-12-17T09:54:11;121.70;;;46.50;;
8450;SDS011;4262;50.980;13.892;2022-12-17T09:57:01;115.13;;;42.83;;
8450;SDS011;4262;50.980;13.892;2022-12-17T09:59:47;121.30;;;44.00;;
8450;SDS011;4262;50.980;13.892;2022-12-17T10:02:41;122.73;;;45.80;;
8450;SDS011;4262;50.980;13.892;2022-12-17T10:05:27;121.80;;;44.47;;
8450;SDS011;4262;50.980;13.892;2022-12-17T10:08:15;89.67;;;36.70;;
8450;SDS011;4262;50.980;13.892;2022-12-17T10:11:08;114.40;;;38.77;;
8450;SDS011;4262;50.980;13.892;2022-12-17T10:13:57;91.83;;;36.80;;
8450;SDS011;4262;50.980;13.892;2022-12-17T10:16:43;96.33;;;35.77;;
8450;SDS011;4262;50.980;13.892;2022-12-17T10:19:31;104.07;;;38.60;;
8450;SDS011;4262;50.980;13.892;2022-12-17T10:22:19;99.60;;;36.30;;
8450;SDS011;4262;50.980;13.892;2022-12-17T10:25:04;103.63;;;41.30;;
8450;SDS011;4262;50.980;13.892;2022-12-17T10:27:49;110.07;;;40.90;;
8450;SDS011;4262;50.980;13.892;2022-12-17T10:30:34;99.27;;;39.13;;
8450;SDS011;4262;50.980;13.892;2022-12-17T10:33:20;110.68;;;37.85;;
8450;SDS011;4262;50.980;13.892;2022-12-17T10:36:18;116.13;;;41.90;;
8450;SDS011;4262;50.980;13.892;2022-12-17T10:39:03;112.23;;;43.50;;
8450;SDS011;4262;50.980;13.892;2022-12-17T10:41:49;100.47;;;40.97;;
8450;SDS011;4262;50.980;13.892;2022-12-17T10:44:34;104.17;;;42.70;;
8450;SDS011;4262;50.980;13.892;2022-12-17T10:47:20;118.60;;;45.37;;
8450;SDS011;4262;50.980;13.892;2022-12-17T10:50:08;108.80;;;39.60;;
8450;SDS011;4262;50.980;13.892;2022-12-17T10:52:55;111.77;;;42.07;;
8450;SDS011;4262;50.980;13.892;2022-12-17T10:55:45;132.57;;;43.73;;
8450;SDS011;4262;50.980;13.892;2022-12-17T10:58:31;108.43;;;40.97;;
8450;SDS011;4262;50.980;13.892;2022-12-17T11:01:17;118.33;;;40.80;;
8450;SDS011;4262;50.980;13.892;2022-12-17T11:04:17;122.63;;;42.60;;
8450;SDS011;4262;50.980;13.892;2022-12-17T11:07:08;109.60;;;39.87;;
8450;SDS011;4262;50.980;13.892;2022-12-17T11:09:57;116.17;;;42.60;;
8450;SDS011;4262;50.980;13.892;2022-12-17T11:12:44;123.63;;;42.30;;
8450;SDS011;4262;50.980;13.892;2022-12-17T11:15:32;116.53;;;42.00;;
8450;SDS011;4262;50.980;13.892;2022-12-17T11:18:23;115.80;;;38.67;;
8450;SDS011;4262;50.980;13.892;2022-12-17T11:21:14;112.50;;;38.67;;
8450;SDS011;4262;50.980;13.892;2022-12-17T11:24:03;119.87;;;42.27;;
8450;SDS011;4262;50.980;13.892;2022-12-17T11:26:55;137.00;;;48.30;;
8450;SDS011;4262;50.980;13.892;2022-12-17T11:29:42;120.23;;;48.47;;
8450;SDS011;4262;50.980;13.892;2022-12-17T11:32:30;122.77;;;44.40;;
8450;SDS011;4262;50.980;13.892;2022-12-17T11:35:25;133.33;;;43.80;;
8450;SDS011;4262;50.980;13.892;2022-12-17T11:38:20;134.10;;;46.33;;
8450;SDS011;4262;50.980;13.892;2022-12-17T11:41:14;125.03;;;43.17;;
8450;SDS011;4262;50.980;13.892;2022-12-17T11:44:05;121.07;;;40.80;;
8450;SDS011;4262;50.980;13.892;2022-12-17T11:47:01;122.50;;;47.20;;
8450;SDS011;4262;50.980;13.892;2022-12-17T11:49:55;131.40;;;47.97;;
8450;SDS011;4262;50.980;13.892;2022-12-17T11:52:50;131.20;;;45.13;;
8450;SDS011;4262;50.980;13.892;2022-12-17T11:55:44;103.27;;;40.57;;
8450;SDS011;4262;50.980;13.892;2022-12-17T11:58:36;110.70;;;42.73;;
8450;SDS011;4262;50.980;13.892;2022-12-17T12:01:25;100.63;;;41.20;;
8450;SDS011;4262;50.980;13.892;2022-12-17T12:04:18;117.00;;;41.87;;
8450;SDS011;4262;50.980;13.892;2022-12-17T12:07:19;121.20;;;45.40;;
8450;SDS011;4262;50.980;13.892;2022-12-17T12:10:10;123.67;;;43.27;;
8450;SDS011;4262;50.980;13.892;2022-12-17T12:13:02;125.23;;;41.63;;
8450;SDS011;4262;50.980;13.892;2022-12-17T12:15:57;130.27;;;43.57;;
8450;SDS011;4262;50.980;13.892;2022-12-17T12:18:52;97.40;;;40.90;;
8450;SDS011;4262;50.980;13.892;2022-12-17T12:21:48;109.67;;;39.73;;
8450;SDS011;4262;50.980;13.892;2022-12-17T12:24:46;104.70;;;39.60;;
8450;SDS011;4262;50.980;13.892;2022-12-17T12:27:45;101.57;;;36.60;;
8450;SDS011;4262;50.980;13.892;2022-12-17T12:30:40;117.67;;;41.43;;
8450;SDS011;4262;50.980;13.892;2022-12-17T12:33:39;104.00;;;35.97;;
8450;SDS011;4262;50.980;13.892;2022-12-17T12:36:31;103.40;;;37.10;;
8450;SDS011;4262;50.980;13.892;2022-12-17T12:39:19;99.03;;;38.83;;
8450;SDS011;4262;50.980;13.892;2022-12-17T12:42:12;99.77;;;41.20;;
8450;SDS011;4262;50.980;13.892;2022-12-17T12:45:01;110.37;;;39.80;;
8450;SDS011;4262;50.980;13.892;2022-12-17T12:47:50;129.87;;;43.47;;
8450;SDS011;4262;50.980;13.892;2022-12-17T12:50:44;103.20;;;38.73;;
8450;SDS011;4262;50.980;13.892;2022-12-17T12:53:36;111.40;;;39.20;;
8450;SDS011;4262;50.980;13.892;2022-12-17T12:56:35;117.10;;;41.30;;
8450;SDS011;4262;50.980;13.892;2022-12-17T12:59:23;115.63;;;41.23;;
8450;SDS011;4262;50.980;13.892;2022-12-17T13:02:13;119.77;;;43.60;;
8450;SDS011;4262;50.980;13.892;2022-12-17T13:05:16;105.20;;;41.00;;
8450;SDS011;4262;50.980;13.892;2022-12-17T13:08:17;125.90;;;43.33;;
8450;SDS011;4262;50.980;13.892;2022-12-17T13:10:47;112.47;;;42.33;;
8450;SDS011;4262;50.980;13.892;2022-12-17T13:13:19;105.33;;;41.80;;
8450;SDS011;4262;50.980;13.892;2022-12-17T13:15:52;106.73;;;42.20;;
8450;SDS011;4262;50.980;13.892;2022-12-17T13:18:22;133.77;;;46.17;;
8450;SDS011;4262;50.980;13.892;2022-12-17T13:20:55;119.70;;;43.87;;
8450;SDS011;4262;50.980;13.892;2022-12-17T13:23:25;120.17;;;42.20;;
8450;SDS011;4262;50.980;13.892;2022-12-17T13:26:13;106.00;;;40.10;;
8450;SDS011;4262;50.980;13.892;2022-12-17T13:29:00;127.13;;;41.03;;
8450;SDS011;4262;50.980;13.892;2022-12-17T13:31:39;90.37;;;39.10;;
8450;SDS011;4262;50.980;13.892;2022-12-17T13:34:19;99.87;;;37.90;;
8450;SDS011;4262;50.980;13.892;2022-12-17T13:36:54;102.33;;;37.40;;
8450;SDS011;4262;50.980;13.892;2022-12-17T13:39:31;92.07;;;37.57;;
8450;SDS011;4262;50.980;13.892;2022-12-17T13:42:14;105.93;;;42.63;;
8450;SDS011;4262;50.980;13.892;2022-12-17T13:44:44;93.87;;;38.60;;
8450;SDS011;4262;50.980;13.892;2022-12-17T13:47:17;92.90;;;40.67;;
8450;SDS011;4262;50.980;13.892;2022-12-17T13:49:48;106.47;;;38.57;;
8450;SDS011;4262;50.980;13.892;2022-12-17T13:52:17;102.37;;;41.60;;
8450;SDS011;4262;50.980;13.892;2022-12-17T13:54:49;85.40;;;36.97;;
8450;SDS011;4262;50.980;13.892;2022-12-17T13:57:18;93.17;;;36.30;;
8450;SDS011;4262;50.980;13.892;2022-12-17T13:59:50;90.77;;;36.83;;
8450;SDS011;4262;50.980;13.892;2022-12-17T14:02:24;81.30;;;35.03;;
8450;SDS011;4262;50.980;13.892;2022-12-17T14:04:54;83.60;;;34.70;;
8450;SDS011;4262;50.980;13.892;2022-12-17T14:07:22;75.37;;;36.70;;
8450;SDS011;4262;50.980;13.892;2022-12-17T14:09:50;78.17;;;35.73;;
8450;SDS011;4262;50.980;13.892;2022-12-17T14:12:19;80.13;;;37.00;;
8450;SDS011;4262;50.980;13.892;2022-12-17T14:14:51;78.53;;;36.63;;
8450;SDS011;4262;50.980;13.892;2022-12-17T14:17:22;81.00;;;33.80;;
8450;SDS011;4262;50.980;13.892;2022-12-17T14:19:53;69.80;;;33.67;;
8450;SDS011;4262;50.980;13.892;2022-12-17T14:22:25;74.23;;;31.97;;
8450;SDS011;4262;50.980;13.892;2022-12-17T14:24:58;70.50;;;32.30;;
8450;SDS011;4262;50.980;13.892;2022-12-17T14:27:31;67.67;;;31.13;;
8450;SDS011;4262;50.980;13.892;2022-12-17T14:30:00;64.57;;;31.30;;
8450;SDS011;4262;50.980;13.892;2022-12-17T14:32:31;60.20;;;28.93;;
8450;SDS011;4262;50.980;13.892;2022-12-17T14:34:59;70.00;;;31.70;;
8450;SDS011;4262;50.980;13.892;2022-12-17T14:37:27;62.77;;;28.70;;
8450;SDS011;4262;50.980;13.892;2022-12-17T14:39:56;79.53;;;30.60;;
8450;SDS011;4262;50.980;13.892;2022-12-17T14:42:28;57.93;;;29.10;;
8450;SDS011;4262;50.980;13.892;2022-12-17T14:44:58;52.50;;;28.17;;
8450;SDS011;4262;50.980;13.892;2022-12-17T14:47:27;56.40;;;29.50;;
8450;SDS011;4262;50.980;13.892;2022-12-17T14:49:56;57.20;;;27.20;;
8450;SDS011;4262;50.980;13.892;2022-12-17T14:52:32;62.50;;;29.93;;
8450;SDS011;4262;50.980;13.892;2022-12-17T14:55:25;67.00;;;30.13;;
8450;SDS011;4262;50.980;13.892;2022-12-17T14:58:16;51.33;;;26.73;;
8450;SDS011;4262;50.980;13.892;2022-12-17T15:00:46;49.90;;;28.00;;
8450;SDS011;4262;50.980;13.892;2022-12-17T15:06:05;51.07;;;25.83;;
8450;SDS011;4262;50.980;13.892;2022-12-17T15:08:35;49.07;;;25.13;;
8450;SDS011;4262;50.980;13.892;2022-12-17T15:11:05;53.93;;;27.93;;
8450;SDS011;4262;50.980;13.892;2022-12-17T15:13:33;52.33;;;28.00;;
8450;SDS011;4262;50.980;13.892;2022-12-17T15:16:00;62.57;;;28.60;;
8450;SDS011;4262;50.980;13.892;2022-12-17T15:18:27;57.43;;;27.23;;
8450;SDS011;4262;50.980;13.892;2022-12-17T15:20:54;50.17;;;26.27;;
8450;SDS011;4262;50.980;13.892;2022-12-17T15:23:21;53.77;;;26.80;;
8450;SDS011;4262;50.980;13.892;2022-12-17T15:25:50;52.77;;;26.17;;
8450;SDS011;4262;50.980;13.892;2022-12-17T15:28:18;49.77;;;26.90;;
8450;SDS011;4262;50.980;13.892;2022-12-17T15:30:48;50.57;;;25.33;;
8450;SDS011;4262;50.980;13.892;2022-12-17T15:33:15;50.70;;;25.33;;
8450;SDS011;4262;50.980;13.892;2022-12-17T15:35:43;46.13;;;25.20;;
8450;SDS011;4262;50.980;13.892;2022-12-17T15:38:10;64.57;;;30.90;;
8450;SDS011;4262;50.980;13.892;2022-12-17T15:40:38;53.77;;;28.73;;
8450;SDS011;4262;50.980;13.892;2022-12-17T15:43:07;52.20;;;26.53;;
8450;SDS011;4262;50.980;13.892;2022-12-17T15:45:37;47.00;;;25.73;;
8450;SDS011;4262;50.980;13.892;2022-12-17T15:48:07;63.57;;;34.50;;
8450;SDS011;4262;50.980;13.892;2022-12-17T15:50:34;52.47;;;24.43;;
8450;SDS011;4262;50.980;13.892;2022-12-17T15:53:01;47.10;;;24.93;;
8450;SDS011;4262;50.980;13.892;2022-12-17T15:55:28;48.03;;;25.40;;
8450;SDS011;4262;50.980;13.892;2022-12-17T15:57:55;53.27;;;27.03;;
8450;SDS011;4262;50.980;13.892;2022-12-17T16:00:22;53.03;;;30.00;;
8450;SDS011;4262;50.980;13.892;2022-12-17T16:02:49;51.73;;;28.57;;
8450;SDS011;4262;50.980;13.892;2022-12-17T16:05:18;52.83;;;28.77;;
8450;SDS011;4262;50.980;13.892;2022-12-17T16:07:46;46.97;;;25.80;;
8450;SDS011;4262;50.980;13.892;2022-12-17T16:10:14;46.10;;;24.67;;
8450;SDS011;4262;50.980;13.892;2022-12-17T16:12:41;52.50;;;23.87;;
8450;SDS011;4262;50.980;13.892;2022-12-17T16:15:09;45.20;;;24.73;;
8450;SDS011;4262;50.980;13.892;2022-12-17T16:17:37;43.37;;;23.37;;
8450;SDS011;4262;50.980;13.892;2022-12-17T16:20:04;49.40;;;25.67;;
8450;SDS011;4262;50.980;13.892;2022-12-17T16:22:34;103.90;;;53.70;;
8450;SDS011;4262;50.980;13.892;2022-12-17T16:25:02;60.27;;;28.50;;
8450;SDS011;4262;50.980;13.892;2022-12-17T16:27:30;50.90;;;28.27;;
8450;SDS011;4262;50.980;13.892;2022-12-17T16:29:56;51.03;;;28.13;;
8450;SDS011;4262;50.980;13.892;2022-12-17T16:32:23;48.73;;;28.47;;
8450;SDS011;4262;50.980;13.892;2022-12-17T16:34:50;57.67;;;30.50;;
8450;SDS011;4262;50.980;13.892;2022-12-17T16:37:16;51.87;;;26.73;;
8450;SDS011;4262;50.980;13.892;2022-12-17T16:39:45;159.83;;;58.10;;
8450;SDS011;4262;50.980;13.892;2022-12-17T16:42:12;99.27;;;42.77;;
8450;SDS011;4262;50.980;13.892;2022-12-17T16:44:38;53.40;;;29.40;;
8450;SDS011;4262;50.980;13.892;2022-12-17T16:47:05;49.70;;;25.77;;
8450;SDS011;4262;50.980;13.892;2022-12-17T16:49:32;46.43;;;26.10;;
8450;SDS011;4262;50.980;13.892;2022-12-17T16:51:59;51.00;;;26.57;;
8450;SDS011;4262;50.980;13.892;2022-12-17T16:54:28;59.53;;;28.83;;
8450;SDS011;4262;50.980;13.892;2022-12-17T16:56:57;57.27;;;28.03;;
8450;SDS011;4262;50.980;13.892;2022-12-17T16:59:25;83.80;;;39.97;;
8450;SDS011;4262;50.980;13.892;2022-12-17T17:01:52;79.77;;;38.00;;
8450;SDS011;4262;50.980;13.892;2022-12-17T17:04:21;77.57;;;37.03;;
8450;SDS011;4262;50.980;13.892;2022-12-17T17:06:50;68.70;;;36.00;;
8450;SDS011;4262;50.980;13.892;2022-12-17T17:09:19;61.47;;;32.60;;
8450;SDS011;4262;50.980;13.892;2022-12-17T17:11:46;61.50;;;28.43;;
8450;SDS011;4262;50.980;13.892;2022-12-17T17:14:15;53.97;;;29.63;;
8450;SDS011;4262;50.980;13.892;2022-12-17T17:16:42;47.20;;;25.03;;
8450;SDS011;4262;50.980;13.892;2022-12-17T17:19:09;51.60;;;28.63;;
8450;SDS011;4262;50.980;13.892;2022-12-17T17:21:37;49.40;;;29.03;;
8450;SDS011;4262;50.980;13.892;2022-12-17T17:24:05;53.47;;;28.83;;
8450;SDS011;4262;50.980;13.892;2022-12-17T17:26:37;55.43;;;29.50;;
8450;SDS011;4262;50.980;13.892;2022-12-17T17:29:05;59.13;;;28.93;;
8450;SDS011;4262;50.980;13.892;2022-12-17T17:31:33;53.47;;;29.47;;
8450;SDS011;4262;50.980;13.892;2022-12-17T17:34:01;59.80;;;32.83;;
8450;SDS011;4262;50.980;13.892;2022-12-17T17:36:35;48.93;;;28.70;;
8450;SDS011;4262;50.980;13.892;2022-12-17T17:39:02;59.03;;;34.50;;
8450;SDS011;4262;50.980;13.892;2022-12-17T17:41:29;66.70;;;32.60;;
8450;SDS011;4262;50.980;13.892;2022-12-17T17:43:58;62.40;;;33.03;;
8450;SDS011;4262;50.980;13.892;2022-12-17T17:46:27;61.10;;;30.97;;
8450;SDS011;4262;50.980;13.892;2022-12-17T17:48:56;55.73;;;29.17;;
8450;SDS011;4262;50.980;13.892;2022-12-17T17:51:26;46.83;;;27.10;;
8450;SDS011;4262;50.980;13.892;2022-12-17T17:53:54;54.33;;;29.27;;
8450;SDS011;4262;50.980;13.892;2022-12-17T17:56:22;53.73;;;31.37;;
8450;SDS011;4262;50.980;13.892;2022-12-17T17:58:51;49.80;;;28.60;;
8450;SDS011;4262;50.980;13.892;2022-12-17T18:01:20;58.90;;;29.03;;
8450;SDS011;4262;50.980;13.892;2022-12-17T18:03:48;51.63;;;25.53;;
8450;SDS011;4262;50.980;13.892;2022-12-17T18:06:16;58.10;;;30.77;;
8450;SDS011;4262;50.980;13.892;2022-12-17T18:08:43;55.63;;;27.00;;
8450;SDS011;4262;50.980;13.892;2022-12-17T18:11:11;43.37;;;24.20;;
8450;SDS011;4262;50.980;13.892;2022-12-17T18:13:42;53.07;;;27.67;;
8450;SDS011;4262;50.980;13.892;2022-12-17T18:16:21;49.57;;;24.50;;
8450;SDS011;4262;50.980;13.892;2022-12-17T18:18:50;48.63;;;24.90;;
8450;SDS011;4262;50.980;13.892;2022-12-17T18:21:21;53.53;;;25.10;;
8450;SDS011;4262;50.980;13.892;2022-12-17T18:23:53;53.90;;;29.10;;
8450;SDS011;4262;50.980;13.892;2022-12-17T18:26:21;51.43;;;29.13;;
8450;SDS011;4262;50.980;13.892;2022-12-17T18:28:49;61.13;;;31.80;;
8450;SDS011;4262;50.980;13.892;2022-12-17T18:31:17;60.20;;;31.80;;
8450;SDS011;4262;50.980;13.892;2022-12-17T18:33:46;50.73;;;29.17;;
8450;SDS011;4262;50.980;13.892;2022-12-17T18:36:15;55.30;;;29.30;;
8450;SDS011;4262;50.980;13.892;2022-12-17T18:38:45;55.60;;;29.00;;
8450;SDS011;4262;50.980;13.892;2022-12-17T18:41:13;54.40;;;28.30;;
8450;SDS011;4262;50.980;13.892;2022-12-17T18:44:00;57.23;;;30.63;;
8450;SDS011;4262;50.980;13.892;2022-12-17T18:46:29;53.30;;;28.63;;
8450;SDS011;4262;50.980;13.892;2022-12-17T18:48:56;60.97;;;30.03;;
8450;SDS011;4262;50.980;13.892;2022-12-17T18:51:26;56.33;;;28.97;;
8450;SDS011;4262;50.980;13.892;2022-12-17T18:53:56;57.03;;;28.30;;
8450;SDS011;4262;50.980;13.892;2022-12-17T18:56:23;53.47;;;29.23;;
8450;SDS011;4262;50.980;13.892;2022-12-17T18:58:51;48.80;;;28.87;;
8450;SDS011;4262;50.980;13.892;2022-12-17T19:01:19;56.47;;;30.67;;
8450;SDS011;4262;50.980;13.892;2022-12-17T19:03:47;61.03;;;29.73;;
8450;SDS011;4262;50.980;13.892;2022-12-17T19:06:16;55.40;;;28.97;;
8450;SDS011;4262;50.980;13.892;2022-12-17T19:08:44;57.57;;;29.50;;
8450;SDS011;4262;50.980;13.892;2022-12-17T19:11:16;62.63;;;31.67;;
8450;SDS011;4262;50.980;13.892;2022-12-17T19:13:46;70.20;;;38.67;;
8450;SDS011;4262;50.980;13.892;2022-12-17T19:16:15;60.37;;;35.17;;
8450;SDS011;4262;50.980;13.892;2022-12-17T19:18:43;56.80;;;29.80;;
8450;SDS011;4262;50.980;13.892;2022-12-17T19:21:11;64.70;;;30.40;;
8450;SDS011;4262;50.980;13.892;2022-12-17T19:23:40;65.90;;;34.97;;
8450;SDS011;4262;50.980;13.892;2022-12-17T19:26:08;66.27;;;33.83;;
8450;SDS011;4262;50.980;13.892;2022-12-17T19:28:39;59.33;;;30.83;;
8450;SDS011;4262;50.980;13.892;2022-12-17T19:31:07;56.83;;;29.60;;
8450;SDS011;4262;50.980;13.892;2022-12-17T19:33:34;55.33;;;28.87;;
8450;SDS011;4262;50.980;13.892;2022-12-17T19:36:02;56.30;;;31.00;;
8450;SDS011;4262;50.980;13.892;2022-12-17T19:38:30;60.57;;;30.90;;
8450;SDS011;4262;50.980;13.892;2022-12-17T19:41:01;60.47;;;30.30;;
8450;SDS011;4262;50.980;13.892;2022-12-17T19:43:28;61.27;;;28.17;;
8450;SDS011;4262;50.980;13.892;2022-12-17T19:46:00;49.97;;;26.63;;
8450;SDS011;4262;50.980;13.892;2022-12-17T19:48:29;55.40;;;26.90;;
8450;SDS011;4262;50.980;13.892;2022-12-17T19:50:57;47.43;;;26.33;;
8450;SDS011;4262;50.980;13.892;2022-12-17T19:53:26;58.83;;;29.53;;
8450;SDS011;4262;50.980;13.892;2022-12-17T19:55:56;50.33;;;25.37;;
8450;SDS011;4262;50.980;13.892;2022-12-17T19:58:35;50.37;;;26.27;;
8450;SDS011;4262;50.980;13.892;2022-12-17T20:01:05;51.50;;;27.87;;
8450;SDS011;4262;50.980;13.892;2022-12-17T20:03:32;54.90;;;27.23;;
8450;SDS011;4262;50.980;13.892;2022-12-17T20:05:59;47.43;;;24.97;;
8450;SDS011;4262;50.980;13.892;2022-12-17T20:08:26;47.43;;;24.60;;
8450;SDS011;4262;50.980;13.892;2022-12-17T20:10:54;44.50;;;24.77;;
8450;SDS011;4262;50.980;13.892;2022-12-17T20:13:21;48.03;;;24.70;;
8450;SDS011;4262;50.980;13.892;2022-12-17T20:15:57;43.43;;;23.87;;
8450;SDS011;4262;50.980;13.892;2022-12-17T20:18:26;43.60;;;24.87;;
8450;SDS011;4262;50.980;13.892;2022-12-17T20:20:59;46.83;;;24.50;;
8450;SDS011;4262;50.980;13.892;2022-12-17T20:23:27;44.27;;;23.23;;
8450;SDS011;4262;50.980;13.892;2022-12-17T20:25:59;48.37;;;25.50;;
8450;SDS011;4262;50.980;13.892;2022-12-17T20:28:27;48.53;;;25.30;;
8450;SDS011;4262;50.980;13.892;2022-12-17T20:30:54;65.67;;;26.10;;
8450;SDS011;4262;50.980;13.892;2022-12-17T20:33:21;46.40;;;24.03;;
8450;SDS011;4262;50.980;13.892;2022-12-17T20:35:50;47.13;;;24.90;;
8450;SDS011;4262;50.980;13.892;2022-12-17T20:38:17;54.23;;;26.27;;
8450;SDS011;4262;50.980;13.892;2022-12-17T20:40:44;43.90;;;21.70;;
8450;SDS011;4262;50.980;13.892;2022-12-17T20:43:11;41.77;;;23.27;;